»·PEaware :: AAY717 KPDX-CYVR

AAY717 :: KPDX-CYVR

FLIGHT INFORMATION

Flight Status: Arrived
Operator:
Allegiant Air
More flights by this operator :: More flights under this callsign
Pilot: Ty S. (2873)
Aircraft: MCDONNELL-DOUGLAS MD-88
(MD88)
More flights by this aircraft type
Origin: KPDX Portland Intl
United States
Destination: CYVR Vancouver Intl
Canada
More flights between these airports :: More routes between these airports
Route: BTG J1 SEA PAE PAINE4
File this flight plan on PilotEdge
Remarks:
Altitude:
(Current/Filed)
24,000ft
Speed:
(Current/Filed)
430kts
Departed: 08-Dec-15 07:44 PM
Arrived: 08-Dec-15 08:32 PM
Distance/Time
Traveled:
217nm/0:48
Distance/Time
To Go:
Arrived

Flight Plot

Page will automatically refresh every two minutes.


Map Options




Map Legend


Flown Route
Filed Route
Departure Airport
Arrival Airport
Navaid (VOR, NDB)
Fix

Horizontal Profiles

Position Reports

Time Latitude Longitude Heading Altitude Ground
Speed
08-Dec-15 18:47 45.590453 -122.595082 28 35ft 0kts
08-Dec-15 18:48 45.590453 -122.595082 28 35ft 0kts
08-Dec-15 18:49 45.590453 -122.595082 28 35ft 0kts
08-Dec-15 18:50 45.590453 -122.595082 28 35ft 0kts
08-Dec-15 18:51 45.590453 -122.595082 28 35ft 0kts
08-Dec-15 18:52 45.590453 -122.595082 28 35ft 0kts
08-Dec-15 18:53 45.590453 -122.595082 28 35ft 0kts
08-Dec-15 18:54 45.590453 -122.595082 28 35ft 0kts
08-Dec-15 18:55 45.590453 -122.595082 28 35ft 0kts
08-Dec-15 18:56 45.590453 -122.595082 28 35ft 0kts
08-Dec-15 18:57 45.590453 -122.595082 28 35ft 0kts
08-Dec-15 18:58 45.590453 -122.595082 28 35ft 0kts
08-Dec-15 18:59 45.590453 -122.595082 28 35ft 0kts
08-Dec-15 19:00 45.590453 -122.595082 28 35ft 0kts
08-Dec-15 19:01 45.590453 -122.595082 28 35ft 0kts
08-Dec-15 19:02 45.590453 -122.595082 28 35ft 0kts
08-Dec-15 19:03 45.590453 -122.595082 28 35ft 0kts
08-Dec-15 19:04 45.590453 -122.595082 28 35ft 0kts
08-Dec-15 19:05 45.590453 -122.595082 28 35ft 0kts
08-Dec-15 19:06 45.590453 -122.595082 28 35ft 0kts
08-Dec-15 19:07 45.590453 -122.595082 28 35ft 0kts
08-Dec-15 19:08 45.590453 -122.595082 28 35ft 0kts
08-Dec-15 19:09 45.590453 -122.595082 28 35ft 0kts
08-Dec-15 19:10 45.590439 -122.595093 28 35ft 1kts
08-Dec-15 19:11 45.589990 -122.595430 321 35ft 3kts
08-Dec-15 19:12 45.590474 -122.596949 299 35ft 0kts
08-Dec-15 19:13 45.590474 -122.596949 299 35ft 0kts
08-Dec-15 19:14 45.590474 -122.596949 299 35ft 0kts
08-Dec-15 19:15 45.590474 -122.596949 299 35ft 0kts
08-Dec-15 19:16 45.590474 -122.596949 299 35ft 0kts
08-Dec-15 19:17 45.590474 -122.596949 299 35ft 0kts
08-Dec-15 19:18 45.590474 -122.596949 299 35ft 0kts
08-Dec-15 19:19 45.590474 -122.596949 299 35ft 0kts
08-Dec-15 19:20 45.590474 -122.596949 299 35ft 0kts
08-Dec-15 19:21 45.590474 -122.596949 299 35ft 0kts
08-Dec-15 19:22 45.590474 -122.596949 299 35ft 0kts
08-Dec-15 19:23 45.591464 -122.598745 353 35ft 11kts
08-Dec-15 19:24 45.594867 -122.596836 43 35ft 16kts
08-Dec-15 19:25 45.595850 -122.600502 226 35ft 6kts
08-Dec-15 19:26 45.594999 -122.600892 172 35ft 0kts
08-Dec-15 19:27 45.594999 -122.600892 172 35ft 0kts
08-Dec-15 19:28 45.594999 -122.600892 172 35ft 0kts
08-Dec-15 19:29 45.594999 -122.600892 172 35ft 0kts
08-Dec-15 19:30 45.594999 -122.600892 172 35ft 0kts
08-Dec-15 19:31 45.594999 -122.600892 172 35ft 0kts
08-Dec-15 19:32 45.594999 -122.600892 172 35ft 0kts
08-Dec-15 19:33 45.594999 -122.600892 172 35ft 0kts
08-Dec-15 19:34 45.594999 -122.600892 172 35ft 0kts
08-Dec-15 19:35 45.594999 -122.600892 172 35ft 0kts
08-Dec-15 19:36 45.594999 -122.600892 172 35ft 0kts
08-Dec-15 19:37 45.594999 -122.600892 172 35ft 0kts
08-Dec-15 19:38 45.594940 -122.600875 167 35ft 0kts
08-Dec-15 19:39 45.594977 -122.600974 140 35ft 0kts
08-Dec-15 19:40 45.594915 -122.600900 139 35ft 7kts
08-Dec-15 19:41 45.591538 -122.603810 224 35ft 81kts
08-Dec-15 19:42 45.568958 -122.643166 249 1526ft 152kts
08-Dec-15 19:43 45.611082 -122.693624 357 2519ft 305kts
08-Dec-15 19:44 45.693671 -122.638598 34 3084ft 341kts
08-Dec-15 19:45 45.779685 -122.587533 5 4852ft 310kts
08-Dec-15 19:46 45.862600 -122.572439 356 8628ft 290kts
08-Dec-15 19:47 45.945810 -122.559330 355 10758ft 349kts
08-Dec-15 19:48 46.048138 -122.542431 356 11803ft 382kts
08-Dec-15 19:49 46.153436 -122.525148 355 14008ft 392kts
08-Dec-15 19:50 46.262718 -122.507148 355 16065ft 401kts
08-Dec-15 19:51 46.374728 -122.488621 354 18008ft 410kts
08-Dec-15 19:52 46.488987 -122.469643 354 19820ft 418kts
08-Dec-15 19:53 46.605000 -122.450308 354 21382ft 430kts
08-Dec-15 19:54 46.725867 -122.430061 354 22557ft 448kts
08-Dec-15 19:55 46.849869 -122.409142 354 23713ft 448kts
08-Dec-15 19:56 46.973293 -122.388285 354 23733ft 446kts
08-Dec-15 19:57 47.096200 -122.367405 354 23739ft 447kts
08-Dec-15 19:58 47.216047 -122.347044 354 23723ft 447kts
08-Dec-15 19:59 47.338492 -122.326454 354 23726ft 448kts
08-Dec-15 20:00 47.460096 -122.308123 350 23733ft 442kts
08-Dec-15 20:01 47.582540 -122.300165 350 23730ft 442kts
08-Dec-15 20:02 47.704336 -122.292175 350 23731ft 442kts
08-Dec-15 20:03 47.825965 -122.284154 350 23739ft 440kts
08-Dec-15 20:04 47.940078 -122.283572 334 23665ft 386kts
08-Dec-15 20:05 48.046099 -122.314415 335 22927ft 386kts
08-Dec-15 20:06 48.149049 -122.344263 335 21673ft 374kts
08-Dec-15 20:07 48.248235 -122.373204 335 20129ft 360kts
08-Dec-15 20:08 48.345514 -122.401663 336 18464ft 354kts
08-Dec-15 20:09 48.441130 -122.429739 336 16858ft 347kts
08-Dec-15 20:10 48.534727 -122.457331 337 15221ft 341kts
08-Dec-15 20:11 48.626938 -122.484605 337 13581ft 335kts
08-Dec-15 20:12 48.712214 -122.519216 307 12372ft 269kts
08-Dec-15 20:13 48.761594 -122.596972 300 12239ft 255kts
08-Dec-15 20:14 48.808254 -122.677194 299 12082ft 254kts
08-Dec-15 20:15 48.854862 -122.758028 299 11904ft 254kts
08-Dec-15 20:16 48.901684 -122.840024 300 11287ft 271kts
08-Dec-15 20:17 48.951865 -122.928012 301 9624ft 278kts
08-Dec-15 20:18 49.003668 -123.019435 304 7668ft 298kts
08-Dec-15 20:19 49.058705 -123.116587 309 5706ft 307kts
08-Dec-15 20:20 49.092880 -123.232684 284 3778ft 306kts
08-Dec-15 20:21 49.112353 -123.355483 284 2334ft 289kts
08-Dec-15 20:22 49.129657 -123.464661 284 1988ft 231kts
08-Dec-15 20:23 49.153835 -123.546938 345 2023ft 221kts
08-Dec-15 20:24 49.204268 -123.503514 43 1612ft 212kts
08-Dec-15 20:25 49.214842 -123.425428 100 1513ft 205kts
08-Dec-15 20:26 49.205018 -123.339407 99 1558ft 198kts
08-Dec-15 20:27 49.197408 -123.272218 98 890ft 144kts
08-Dec-15 20:28 49.190709 -123.213057 98 139ft 138kts
08-Dec-15 20:29 49.186917 -123.175415 66 20ft 32kts
08-Dec-15 20:30 49.188456 -123.175385 279 20ft 19kts
08-Dec-15 20:31 49.189189 -123.180651 350 20ft 7kts

Navigation Log

Ident Type
Flight plan parsing failed, navigation log unavailable